sensor_id;sensor_type;location;lat;lon;timestamp;temperature;humidity
68789;DHT22;55773;54.444;18.376;2022-07-04T00:00:17;15.37;85.72
68789;DHT22;55773;54.444;18.376;2022-07-04T00:02:44;15.39;86.33
68789;DHT22;55773;54.444;18.376;2022-07-04T00:05:11;15.33;85.98
68789;DHT22;55773;54.444;18.376;2022-07-04T00:07:37;15.30;86.07
68789;DHT22;55773;54.444;18.376;2022-07-04T00:10:04;15.22;87.00
68789;DHT22;55773;54.444;18.376;2022-07-04T00:12:30;15.19;86.77
68789;DHT22;55773;54.444;18.376;2022-07-04T00:14:56;15.10;87.78
68789;DHT22;55773;54.444;18.376;2022-07-04T00:17:21;15.16;86.75
68789;DHT22;55773;54.444;18.376;2022-07-04T00:19:47;15.12;87.18
68789;DHT22;55773;54.444;18.376;2022-07-04T00:22:12;15.06;87.02
68789;DHT22;55773;54.444;18.376;2022-07-04T00:24:38;15.10;87.01
68789;DHT22;55773;54.444;18.376;2022-07-04T00:27:06;15.18;86.59
68789;DHT22;55773;54.444;18.376;2022-07-04T00:29:33;15.18;86.39
68789;DHT22;55773;54.444;18.376;2022-07-04T00:31:59;15.10;87.07
68789;DHT22;55773;54.444;18.376;2022-07-04T00:34:25;15.10;86.34
68789;DHT22;55773;54.444;18.376;2022-07-04T00:36:51;15.12;86.28
68789;DHT22;55773;54.444;18.376;2022-07-04T00:39:17;15.19;86.37
68789;DHT22;55773;54.444;18.376;2022-07-04T00:41:42;15.18;86.00
68789;DHT22;55773;54.444;18.376;2022-07-04T00:44:09;15.13;85.92
68789;DHT22;55773;54.444;18.376;2022-07-04T00:46:35;15.07;86.42
68789;DHT22;55773;54.444;18.376;2022-07-04T00:49:04;15.07;86.22
68789;DHT22;55773;54.444;18.376;2022-07-04T00:51:30;15.03;87.87
68789;DHT22;55773;54.444;18.376;2022-07-04T00:53:56;14.98;87.65
68789;DHT22;55773;54.444;18.376;2022-07-04T00:56:23;14.93;87.12
68789;DHT22;55773;54.444;18.376;2022-07-04T00:58:50;14.96;87.03
68789;DHT22;55773;54.444;18.376;2022-07-04T01:01:16;14.95;86.65
68789;DHT22;55773;54.444;18.376;2022-07-04T01:03:43;14.91;87.27
68789;DHT22;55773;54.444;18.376;2022-07-04T01:06:09;14.89;87.89
68789;DHT22;55773;54.444;18.376;2022-07-04T01:08:38;14.85;88.01
68789;DHT22;55773;54.444;18.376;2022-07-04T01:11:05;14.88;87.10
68789;DHT22;55773;54.444;18.376;2022-07-04T01:13:30;14.88;86.81
68789;DHT22;55773;54.444;18.376;2022-07-04T01:15:55;14.93;86.60
68789;DHT22;55773;54.444;18.376;2022-07-04T01:18:21;14.92;86.84
68789;DHT22;55773;54.444;18.376;2022-07-04T01:20:47;14.86;86.94
68789;DHT22;55773;54.444;18.376;2022-07-04T01:23:12;14.85;87.05
68789;DHT22;55773;54.444;18.376;2022-07-04T01:25:38;14.81;87.01
68789;DHT22;55773;54.444;18.376;2022-07-04T01:28:04;14.82;86.50
68789;DHT22;55773;54.444;18.376;2022-07-04T01:30:33;14.81;86.74
68789;DHT22;55773;54.444;18.376;2022-07-04T01:33:01;14.78;87.39
68789;DHT22;55773;54.444;18.376;2022-07-04T01:35:27;14.77;87.03
68789;DHT22;55773;54.444;18.376;2022-07-04T01:37:52;14.74;87.06
68789;DHT22;55773;54.444;18.376;2022-07-04T01:40:19;14.74;87.49
68789;DHT22;55773;54.444;18.376;2022-07-04T01:42:45;14.67;86.94
68789;DHT22;55773;54.444;18.376;2022-07-04T01:45:10;14.65;87.01
68789;DHT22;55773;54.444;18.376;2022-07-04T01:47:37;14.63;86.79
68789;DHT22;55773;54.444;18.376;2022-07-04T01:50:05;14.64;86.91
68789;DHT22;55773;54.444;18.376;2022-07-04T01:52:31;14.64;86.22
68789;DHT22;55773;54.444;18.376;2022-07-04T01:54:57;14.63;86.19
68789;DHT22;55773;54.444;18.376;2022-07-04T01:57:22;14.64;86.04
68789;DHT22;55773;54.444;18.376;2022-07-04T01:59:48;14.63;85.41
68789;DHT22;55773;54.444;18.376;2022-07-04T02:02:32;14.52;86.42
68789;DHT22;55773;54.444;18.376;2022-07-04T02:04:58;14.41;86.09
68789;DHT22;55773;54.444;18.376;2022-07-04T02:07:23;14.40;87.16
68789;DHT22;55773;54.444;18.376;2022-07-04T02:09:48;14.45;88.12
68789;DHT22;55773;54.444;18.376;2022-07-04T02:12:16;14.49;87.22
68789;DHT22;55773;54.444;18.376;2022-07-04T02:15:00;14.48;87.06
68789;DHT22;55773;54.444;18.376;2022-07-04T02:17:26;14.54;87.69
68789;DHT22;55773;54.444;18.376;2022-07-04T02:19:51;14.57;87.73
68789;DHT22;55773;54.444;18.376;2022-07-04T02:22:17;14.52;88.16
68789;DHT22;55773;54.444;18.376;2022-07-04T02:24:42;14.57;88.11
68789;DHT22;55773;54.444;18.376;2022-07-04T02:27:08;14.64;89.04
68789;DHT22;55773;54.444;18.376;2022-07-04T02:29:33;14.74;88.32
68789;DHT22;55773;54.444;18.376;2022-07-04T02:31:59;14.75;87.83
68789;DHT22;55773;54.444;18.376;2022-07-04T02:34:24;14.78;88.28
68789;DHT22;55773;54.444;18.376;2022-07-04T02:36:49;14.72;86.78
68789;DHT22;55773;54.444;18.376;2022-07-04T02:39:15;14.65;86.43
68789;DHT22;55773;54.444;18.376;2022-07-04T02:41:40;14.61;86.40
68789;DHT22;55773;54.444;18.376;2022-07-04T02:44:06;14.63;87.37
68789;DHT22;55773;54.444;18.376;2022-07-04T02:46:31;14.60;87.24
68789;DHT22;55773;54.444;18.376;2022-07-04T02:49:00;14.64;86.82
68789;DHT22;55773;54.444;18.376;2022-07-04T02:51:26;14.65;87.71
68789;DHT22;55773;54.444;18.376;2022-07-04T02:53:51;14.67;87.76
68789;DHT22;55773;54.444;18.376;2022-07-04T02:56:16;14.68;87.89
68789;DHT22;55773;54.444;18.376;2022-07-04T02:58:42;14.77;87.57
68789;DHT22;55773;54.444;18.376;2022-07-04T03:01:07;14.77;87.55
68789;DHT22;55773;54.444;18.376;2022-07-04T03:03:33;14.77;88.26
68789;DHT22;55773;54.444;18.376;2022-07-04T03:05:58;14.75;88.25
68789;DHT22;55773;54.444;18.376;2022-07-04T03:08:24;14.82;88.05
68789;DHT22;55773;54.444;18.376;2022-07-04T03:10:52;14.86;88.54
68789;DHT22;55773;54.444;18.376;2022-07-04T03:13:18;14.92;87.44
68789;DHT22;55773;54.444;18.376;2022-07-04T03:15:43;14.91;86.95
68789;DHT22;55773;54.444;18.376;2022-07-04T03:18:09;14.91;87.40
68789;DHT22;55773;54.444;18.376;2022-07-04T03:20:34;14.93;87.04
68789;DHT22;55773;54.444;18.376;2022-07-04T03:22:59;14.93;87.51
68789;DHT22;55773;54.444;18.376;2022-07-04T03:25:25;14.99;87.57
68789;DHT22;55773;54.444;18.376;2022-07-04T03:27:50;15.00;87.14
68789;DHT22;55773;54.444;18.376;2022-07-04T03:30:16;15.09;87.33
68789;DHT22;55773;54.444;18.376;2022-07-04T03:32:41;15.16;87.29
68789;DHT22;55773;54.444;18.376;2022-07-04T03:35:06;15.19;87.07
68789;DHT22;55773;54.444;18.376;2022-07-04T03:37:32;15.23;87.11
68789;DHT22;55773;54.444;18.376;2022-07-04T03:39:57;15.22;87.37
68789;DHT22;55773;54.444;18.376;2022-07-04T03:42:23;15.29;87.72
68789;DHT22;55773;54.444;18.376;2022-07-04T03:44:50;15.60;86.64
68789;DHT22;55773;54.444;18.376;2022-07-04T03:47:16;15.95;85.28
68789;DHT22;55773;54.444;18.376;2022-07-04T03:49:41;15.93;85.49
68789;DHT22;55773;54.444;18.376;2022-07-04T03:52:07;15.93;85.31
68789;DHT22;55773;54.444;18.376;2022-07-04T03:54:35;16.05;85.89
68789;DHT22;55773;54.444;18.376;2022-07-04T03:57:00;16.32;84.12
68789;DHT22;55773;54.444;18.376;2022-07-04T03:59:25;16.43;84.05
68789;DHT22;55773;54.444;18.376;2022-07-04T04:01:51;16.43;83.54
68789;DHT22;55773;54.444;18.376;2022-07-04T04:04:19;16.48;83.51
68789;DHT22;55773;54.444;18.376;2022-07-04T04:07:03;16.35;83.79
68789;DHT22;55773;54.444;18.376;2022-07-04T04:09:29;16.23;84.17
68789;DHT22;55773;54.444;18.376;2022-07-04T04:11:56;16.21;84.00
68789;DHT22;55773;54.444;18.376;2022-07-04T04:14:22;16.16;84.35
68789;DHT22;55773;54.444;18.376;2022-07-04T04:16:49;16.14;84.76
68789;DHT22;55773;54.444;18.376;2022-07-04T04:19:14;16.15;85.19
68789;DHT22;55773;54.444;18.376;2022-07-04T04:21:39;16.35;83.86
68789;DHT22;55773;54.444;18.376;2022-07-04T04:24:05;16.56;83.06
68789;DHT22;55773;54.444;18.376;2022-07-04T04:26:32;16.53;83.97
68789;DHT22;55773;54.444;18.376;2022-07-04T04:28:58;16.80;82.92
68789;DHT22;55773;54.444;18.376;2022-07-04T04:31:23;16.95;82.42
68789;DHT22;55773;54.444;18.376;2022-07-04T04:33:49;17.06;82.73
68789;DHT22;55773;54.444;18.376;2022-07-04T04:36:14;17.24;81.46
68789;DHT22;55773;54.444;18.376;2022-07-04T04:38:39;17.38;82.21
68789;DHT22;55773;54.444;18.376;2022-07-04T04:41:05;17.56;81.27
68789;DHT22;55773;54.444;18.376;2022-07-04T04:43:30;17.65;79.83
68789;DHT22;55773;54.444;18.376;2022-07-04T04:45:55;17.85;80.87
68789;DHT22;55773;54.444;18.376;2022-07-04T04:48:21;18.04;80.46
68789;DHT22;55773;54.444;18.376;2022-07-04T04:50:46;18.16;80.85
68789;DHT22;55773;54.444;18.376;2022-07-04T04:53:12;18.34;80.29
68789;DHT22;55773;54.444;18.376;2022-07-04T04:55:37;18.52;80.99
68789;DHT22;55773;54.444;18.376;2022-07-04T04:58:03;18.68;79.89
68789;DHT22;55773;54.444;18.376;2022-07-04T05:00:28;18.65;79.48
68789;DHT22;55773;54.444;18.376;2022-07-04T05:02:54;18.55;79.29
68789;DHT22;55773;54.444;18.376;2022-07-04T05:05:19;18.51;78.47
68789;DHT22;55773;54.444;18.376;2022-07-04T05:07:44;18.47;78.29
68789;DHT22;55773;54.444;18.376;2022-07-04T05:10:10;18.44;78.39
68789;DHT22;55773;54.444;18.376;2022-07-04T05:12:35;18.41;79.35
68789;DHT22;55773;54.444;18.376;2022-07-04T05:15:01;18.44;78.66
68789;DHT22;55773;54.444;18.376;2022-07-04T05:17:26;18.48;79.85
68789;DHT22;55773;54.444;18.376;2022-07-04T05:19:52;18.47;79.65
68789;DHT22;55773;54.444;18.376;2022-07-04T05:22:17;18.52;78.40
68789;DHT22;55773;54.444;18.376;2022-07-04T05:24:42;18.66;79.59
68789;DHT22;55773;54.444;18.376;2022-07-04T05:27:08;18.79;78.16
68789;DHT22;55773;54.444;18.376;2022-07-04T05:29:33;19.09;76.93
68789;DHT22;55773;54.444;18.376;2022-07-04T05:31:59;19.40;76.65
68789;DHT22;55773;54.444;18.376;2022-07-04T05:34:24;19.63;77.24
68789;DHT22;55773;54.444;18.376;2022-07-04T05:36:50;19.61;74.52
68789;DHT22;55773;54.444;18.376;2022-07-04T05:39:15;19.57;74.22
68789;DHT22;55773;54.444;18.376;2022-07-04T05:41:41;19.75;74.36
68789;DHT22;55773;54.444;18.376;2022-07-04T05:44:06;20.05;74.11
68789;DHT22;55773;54.444;18.376;2022-07-04T05:46:31;20.32;72.07
68789;DHT22;55773;54.444;18.376;2022-07-04T05:48:57;20.49;72.41
68789;DHT22;55773;54.444;18.376;2022-07-04T05:51:23;20.73;71.27
68789;DHT22;55773;54.444;18.376;2022-07-04T05:53:51;20.61;69.98
68789;DHT22;55773;54.444;18.376;2022-07-04T05:56:16;20.79;70.17
68789;DHT22;55773;54.444;18.376;2022-07-04T05:58:42;20.87;69.54
68789;DHT22;55773;54.444;18.376;2022-07-04T06:01:07;20.94;71.19
68789;DHT22;55773;54.444;18.376;2022-07-04T06:03:34;21.24;69.21
68789;DHT22;55773;54.444;18.376;2022-07-04T06:06:02;21.43;69.11
68789;DHT22;55773;54.444;18.376;2022-07-04T06:08:27;21.60;68.33
68789;DHT22;55773;54.444;18.376;2022-07-04T06:10:53;21.79;65.30
68789;DHT22;55773;54.444;18.376;2022-07-04T06:13:18;21.90;65.49
68789;DHT22;55773;54.444;18.376;2022-07-04T06:15:43;22.17;65.16
68789;DHT22;55773;54.444;18.376;2022-07-04T06:18:09;22.16;64.83
68789;DHT22;55773;54.444;18.376;2022-07-04T06:20:34;22.37;64.86
68789;DHT22;55773;54.444;18.376;2022-07-04T06:23:00;22.54;62.93
68789;DHT22;55773;54.444;18.376;2022-07-04T06:25:26;22.76;63.94
68789;DHT22;55773;54.444;18.376;2022-07-04T06:27:51;22.88;65.27
68789;DHT22;55773;54.444;18.376;2022-07-04T06:30:17;23.05;63.89
68789;DHT22;55773;54.444;18.376;2022-07-04T06:32:47;23.09;61.62
68789;DHT22;55773;54.444;18.376;2022-07-04T06:35:13;23.39;62.33
68789;DHT22;55773;54.444;18.376;2022-07-04T06:37:58;23.39;63.07
68789;DHT22;55773;54.444;18.376;2022-07-04T06:40:23;23.70;61.39
68789;DHT22;55773;54.444;18.376;2022-07-04T06:42:49;23.40;61.13
68789;DHT22;55773;54.444;18.376;2022-07-04T06:45:15;24.01;60.19
68789;DHT22;55773;54.444;18.376;2022-07-04T06:47:41;24.11;60.43
68789;DHT22;55773;54.444;18.376;2022-07-04T06:50:06;24.02;58.19
68789;DHT22;55773;54.444;18.376;2022-07-04T06:52:34;23.67;59.56
68789;DHT22;55773;54.444;18.376;2022-07-04T06:55:00;23.10;59.85
68789;DHT22;55773;54.444;18.376;2022-07-04T06:57:25;23.02;62.08
68789;DHT22;55773;54.444;18.376;2022-07-04T06:59:51;23.09;60.21
68789;DHT22;55773;54.444;18.376;2022-07-04T07:02:16;23.23;62.24
68789;DHT22;55773;54.444;18.376;2022-07-04T07:04:42;23.34;60.16
68789;DHT22;55773;54.444;18.376;2022-07-04T07:07:08;22.86;60.70
68789;DHT22;55773;54.444;18.376;2022-07-04T07:09:33;22.79;62.64
68789;DHT22;55773;54.444;18.376;2022-07-04T07:11:59;22.83;62.60
68789;DHT22;55773;54.444;18.376;2022-07-04T07:14:24;22.66;62.24
68789;DHT22;55773;54.444;18.376;2022-07-04T07:16:49;22.69;62.96
68789;DHT22;55773;54.444;18.376;2022-07-04T07:19:15;22.82;61.93
68789;DHT22;55773;54.444;18.376;2022-07-04T07:21:40;22.85;59.14
68789;DHT22;55773;54.444;18.376;2022-07-04T07:24:05;22.65;60.69
68789;DHT22;55773;54.444;18.376;2022-07-04T07:26:31;22.48;60.31
68789;DHT22;55773;54.444;18.376;2022-07-04T07:28:56;22.35;61.86
68789;DHT22;55773;54.444;18.376;2022-07-04T07:31:22;22.17;62.04
68789;DHT22;55773;54.444;18.376;2022-07-04T07:33:47;22.11;61.83
68789;DHT22;55773;54.444;18.376;2022-07-04T07:36:12;22.06;63.87
68789;DHT22;55773;54.444;18.376;2022-07-04T07:38:38;21.93;63.62
68789;DHT22;55773;54.444;18.376;2022-07-04T07:41:06;21.96;62.42
68789;DHT22;55773;54.444;18.376;2022-07-04T07:43:32;21.67;62.22
68789;DHT22;55773;54.444;18.376;2022-07-04T07:45:57;21.42;63.19
68789;DHT22;55773;54.444;18.376;2022-07-04T07:48:23;21.21;63.83
68789;DHT22;55773;54.444;18.376;2022-07-04T07:50:48;21.05;64.94
68789;DHT22;55773;54.444;18.376;2022-07-04T07:53:13;20.98;66.02
68789;DHT22;55773;54.444;18.376;2022-07-04T07:55:39;20.92;66.33
68789;DHT22;55773;54.444;18.376;2022-07-04T07:58:04;20.88;66.79
68789;DHT22;55773;54.444;18.376;2022-07-04T08:00:30;20.87;67.15
68789;DHT22;55773;54.444;18.376;2022-07-04T08:02:55;20.80;67.54
68789;DHT22;55773;54.444;18.376;2022-07-04T08:05:39;20.84;67.07
68789;DHT22;55773;54.444;18.376;2022-07-04T08:08:04;20.83;66.94
68789;DHT22;55773;54.444;18.376;2022-07-04T08:10:32;20.70;66.31
68789;DHT22;55773;54.444;18.376;2022-07-04T08:12:57;20.50;66.47
68789;DHT22;55773;54.444;18.376;2022-07-04T08:15:24;20.42;66.85
68789;DHT22;55773;54.444;18.376;2022-07-04T08:17:50;20.33;67.44
68789;DHT22;55773;54.444;18.376;2022-07-04T08:20:16;20.25;67.87
68789;DHT22;55773;54.444;18.376;2022-07-04T08:22:41;20.16;68.74
68789;DHT22;55773;54.444;18.376;2022-07-04T08:25:08;20.05;69.11
68789;DHT22;55773;54.444;18.376;2022-07-04T08:27:33;19.98;69.67
68789;DHT22;55773;54.444;18.376;2022-07-04T08:29:59;19.98;69.29
68789;DHT22;55773;54.444;18.376;2022-07-04T08:32:24;19.95;69.58
68789;DHT22;55773;54.444;18.376;2022-07-04T08:34:50;19.91;69.22
68789;DHT22;55773;54.444;18.376;2022-07-04T08:37:15;19.82;69.80
68789;DHT22;55773;54.444;18.376;2022-07-04T08:39:40;19.75;69.63
68789;DHT22;55773;54.444;18.376;2022-07-04T08:42:06;19.77;69.38
68789;DHT22;55773;54.444;18.376;2022-07-04T08:44:38;19.58;70.15
68789;DHT22;55773;54.444;18.376;2022-07-04T08:47:05;19.47;69.50
68789;DHT22;55773;54.444;18.376;2022-07-04T08:49:32;19.36;69.11
68789;DHT22;55773;54.444;18.376;2022-07-04T08:52:02;19.22;69.67
68789;DHT22;55773;54.444;18.376;2022-07-04T08:54:29;19.16;71.05
68789;DHT22;55773;54.444;18.376;2022-07-04T08:57:13;19.06;69.70
68789;DHT22;55773;54.444;18.376;2022-07-04T08:59:58;19.03;70.59
68789;DHT22;55773;54.444;18.376;2022-07-04T09:02:24;19.02;70.82
68789;DHT22;55773;54.444;18.376;2022-07-04T09:04:51;18.95;72.78
68789;DHT22;55773;54.444;18.376;2022-07-04T09:07:16;18.88;71.19
68789;DHT22;55773;54.444;18.376;2022-07-04T09:09:43;18.76;73.99
68789;DHT22;55773;54.444;18.376;2022-07-04T09:12:09;18.78;73.61
68789;DHT22;55773;54.444;18.376;2022-07-04T09:14:34;18.68;73.40
68789;DHT22;55773;54.444;18.376;2022-07-04T09:17:00;18.61;74.20
68789;DHT22;55773;54.444;18.376;2022-07-04T09:19:25;18.52;73.04
68789;DHT22;55773;54.444;18.376;2022-07-04T09:21:50;18.64;73.61
68789;DHT22;55773;54.444;18.376;2022-07-04T09:24:16;18.73;75.74
68789;DHT22;55773;54.444;18.376;2022-07-04T09:27:01;18.76;75.38
68789;DHT22;55773;54.444;18.376;2022-07-04T09:29:26;18.85;73.98
68789;DHT22;55773;54.444;18.376;2022-07-04T09:31:52;18.68;78.37
68789;DHT22;55773;54.444;18.376;2022-07-04T09:34:17;18.84;77.26
68789;DHT22;55773;54.444;18.376;2022-07-04T09:36:43;18.99;74.77
68789;DHT22;55773;54.444;18.376;2022-07-04T09:39:16;18.85;74.97
68789;DHT22;55773;54.444;18.376;2022-07-04T09:44:17;19.17;69.85
68789;DHT22;55773;54.444;18.376;2022-07-04T09:46:43;19.05;72.78
68789;DHT22;55773;54.444;18.376;2022-07-04T09:49:09;19.26;71.58
68789;DHT22;55773;54.444;18.376;2022-07-04T09:51:42;19.43;71.28
68789;DHT22;55773;54.444;18.376;2022-07-04T09:54:15;19.68;71.31
68789;DHT22;55773;54.444;18.376;2022-07-04T09:56:41;19.99;72.75
68789;DHT22;55773;54.444;18.376;2022-07-04T09:59:07;20.84;66.53
68789;DHT22;55773;54.444;18.376;2022-07-04T10:01:32;21.02;68.10
68789;DHT22;55773;54.444;18.376;2022-07-04T10:03:58;21.11;66.53
68789;DHT22;55773;54.444;18.376;2022-07-04T10:06:24;21.62;65.48
68789;DHT22;55773;54.444;18.376;2022-07-04T10:08:49;22.43;64.09
68789;DHT22;55773;54.444;18.376;2022-07-04T10:11:15;22.99;62.10
68789;DHT22;55773;54.444;18.376;2022-07-04T10:13:40;22.92;61.16
68789;DHT22;55773;54.444;18.376;2022-07-04T10:16:06;23.31;58.48
68789;DHT22;55773;54.444;18.376;2022-07-04T10:18:34;23.06;59.26
68789;DHT22;55773;54.444;18.376;2022-07-04T10:21:00;23.14;57.04
68789;DHT22;55773;54.444;18.376;2022-07-04T10:23:25;23.41;58.00
68789;DHT22;55773;54.444;18.376;2022-07-04T10:25:56;23.88;59.39
68789;DHT22;55773;54.444;18.376;2022-07-04T10:28:22;24.43;56.78
68789;DHT22;55773;54.444;18.376;2022-07-04T10:30:49;24.29;54.50
68789;DHT22;55773;54.444;18.376;2022-07-04T10:33:16;23.61;53.68
68789;DHT22;55773;54.444;18.376;2022-07-04T10:35:52;23.61;55.91
68789;DHT22;55773;54.444;18.376;2022-07-04T10:38:24;24.12;56.50
68789;DHT22;55773;54.444;18.376;2022-07-04T10:45:51;24.73;54.46
68789;DHT22;55773;54.444;18.376;2022-07-04T10:48:23;25.18;52.85
68789;DHT22;55773;54.444;18.376;2022-07-04T10:51:06;25.11;54.77
68789;DHT22;55773;54.444;18.376;2022-07-04T10:53:33;25.39;53.81
68789;DHT22;55773;54.444;18.376;2022-07-04T10:58:42;25.07;52.61
68789;DHT22;55773;54.444;18.376;2022-07-04T11:01:11;24.98;54.13
68789;DHT22;55773;54.444;18.376;2022-07-04T11:04:10;25.24;55.24
68789;DHT22;55773;54.444;18.376;2022-07-04T11:09:18;25.31;54.07
68789;DHT22;55773;54.444;18.376;2022-07-04T11:12:17;25.41;53.44
68789;DHT22;55773;54.444;18.376;2022-07-04T11:14:37;25.93;51.99
68789;DHT22;55773;54.444;18.376;2022-07-04T11:17:07;25.93;53.01
68789;DHT22;55773;54.444;18.376;2022-07-04T11:19:33;26.01;53.29
68789;DHT22;55773;54.444;18.376;2022-07-04T11:21:58;25.92;52.86
68789;DHT22;55773;54.444;18.376;2022-07-04T11:24:24;25.29;52.69
68789;DHT22;55773;54.444;18.376;2022-07-04T11:26:50;25.80;50.16
68789;DHT22;55773;54.444;18.376;2022-07-04T11:29:16;25.63;52.68
68789;DHT22;55773;54.444;18.376;2022-07-04T11:31:42;25.93;47.73
68789;DHT22;55773;54.444;18.376;2022-07-04T11:34:08;25.76;49.15
68789;DHT22;55773;54.444;18.376;2022-07-04T11:36:33;25.92;51.41
68789;DHT22;55773;54.444;18.376;2022-07-04T11:39:03;26.08;48.67
68789;DHT22;55773;54.444;18.376;2022-07-04T11:41:33;25.50;49.15
68789;DHT22;55773;54.444;18.376;2022-07-04T11:44:34;26.14;49.71
68789;DHT22;55773;54.444;18.376;2022-07-04T11:47:28;26.17;49.60
68789;DHT22;55773;54.444;18.376;2022-07-04T11:49:57;25.77;50.56
68789;DHT22;55773;54.444;18.376;2022-07-04T11:52:26;26.17;49.33
68789;DHT22;55773;54.444;18.376;2022-07-04T11:54:53;26.27;49.11
68789;DHT22;55773;54.444;18.376;2022-07-04T12:00:20;26.88;49.59
68789;DHT22;55773;54.444;18.376;2022-07-04T12:02:38;26.45;50.70
68789;DHT22;55773;54.444;18.376;2022-07-04T12:05:05;26.52;50.01
68789;DHT22;55773;54.444;18.376;2022-07-04T12:07:32;26.21;49.68
68789;DHT22;55773;54.444;18.376;2022-07-04T12:10:06;25.50;52.46
68789;DHT22;55773;54.444;18.376;2022-07-04T12:12:32;25.86;51.86
68789;DHT22;55773;54.444;18.376;2022-07-04T12:15:02;26.17;51.70
68789;DHT22;55773;54.444;18.376;2022-07-04T12:17:37;26.28;49.83
68789;DHT22;55773;54.444;18.376;2022-07-04T12:20:12;26.33;50.51
68789;DHT22;55773;54.444;18.376;2022-07-04T12:22:39;26.48;51.58
68789;DHT22;55773;54.444;18.376;2022-07-04T12:25:06;26.67;50.52
68789;DHT22;55773;54.444;18.376;2022-07-04T12:27:32;26.68;50.80
68789;DHT22;55773;54.444;18.376;2022-07-04T12:29:58;27.17;50.31
68789;DHT22;55773;54.444;18.376;2022-07-04T12:32:41;27.50;49.64
68789;DHT22;55773;54.444;18.376;2022-07-04T12:35:08;27.20;50.25
68789;DHT22;55773;54.444;18.376;2022-07-04T12:37:33;27.19;50.99
68789;DHT22;55773;54.444;18.376;2022-07-04T12:39:59;27.71;47.26
68789;DHT22;55773;54.444;18.376;2022-07-04T12:42:31;27.33;50.71
68789;DHT22;55773;54.444;18.376;2022-07-04T12:45:04;27.27;49.39
68789;DHT22;55773;54.444;18.376;2022-07-04T12:47:30;27.19;49.80
68789;DHT22;55773;54.444;18.376;2022-07-04T12:49:58;26.64;50.97
68789;DHT22;55773;54.444;18.376;2022-07-04T12:52:26;26.79;49.89
68789;DHT22;55773;54.444;18.376;2022-07-04T12:55:01;26.69;50.01
68789;DHT22;55773;54.444;18.376;2022-07-04T12:57:27;26.82;51.05
68789;DHT22;55773;54.444;18.376;2022-07-04T12:59:53;27.33;48.48
68789;DHT22;55773;54.444;18.376;2022-07-04T13:02:21;26.93;49.42
68789;DHT22;55773;54.444;18.376;2022-07-04T13:04:46;26.72;50.33
68789;DHT22;55773;54.444;18.376;2022-07-04T13:07:15;27.24;48.84
68789;DHT22;55773;54.444;18.376;2022-07-04T13:09:41;26.91;50.18
68789;DHT22;55773;54.444;18.376;2022-07-04T13:12:07;26.58;51.64
68789;DHT22;55773;54.444;18.376;2022-07-04T13:14:56;25.98;52.31
68789;DHT22;55773;54.444;18.376;2022-07-04T13:17:25;26.06;53.73
68789;DHT22;55773;54.444;18.376;2022-07-04T13:19:51;26.00;52.78
68789;DHT22;55773;54.444;18.376;2022-07-04T13:22:21;25.53;54.03
68789;DHT22;55773;54.444;18.376;2022-07-04T13:24:47;24.99;54.65
68789;DHT22;55773;54.444;18.376;2022-07-04T13:27:13;25.03;56.23
68789;DHT22;55773;54.444;18.376;2022-07-04T13:29:39;24.76;58.19
68789;DHT22;55773;54.444;18.376;2022-07-04T13:32:04;24.30;60.06
68789;DHT22;55773;54.444;18.376;2022-07-04T13:34:30;24.15;61.92
68789;DHT22;55773;54.444;18.376;2022-07-04T13:36:56;24.37;63.27
68789;DHT22;55773;54.444;18.376;2022-07-04T13:39:24;24.69;62.44
68789;DHT22;55773;54.444;18.376;2022-07-04T13:41:50;25.50;60.44
68789;DHT22;55773;54.444;18.376;2022-07-04T13:44:15;25.85;59.93
68789;DHT22;55773;54.444;18.376;2022-07-04T13:46:41;25.46;58.53
68789;DHT22;55773;54.444;18.376;2022-07-04T13:49:07;25.04;60.51
68789;DHT22;55773;54.444;18.376;2022-07-04T13:51:32;24.77;60.91
68789;DHT22;55773;54.444;18.376;2022-07-04T13:53:58;24.67;62.75
68789;DHT22;55773;54.444;18.376;2022-07-04T13:56:23;24.67;60.95
68789;DHT22;55773;54.444;18.376;2022-07-04T13:58:49;24.49;61.95
68789;DHT22;55773;54.444;18.376;2022-07-04T14:01:17;24.15;62.40
68789;DHT22;55773;54.444;18.376;2022-07-04T14:03:44;23.97;63.70
68789;DHT22;55773;54.444;18.376;2022-07-04T14:06:09;23.62;64.41
68789;DHT22;55773;54.444;18.376;2022-07-04T14:08:35;23.26;65.53
68789;DHT22;55773;54.444;18.376;2022-07-04T14:11:01;23.12;66.02
68789;DHT22;55773;54.444;18.376;2022-07-04T14:13:27;22.72;67.19
68789;DHT22;55773;54.444;18.376;2022-07-04T14:15:52;22.43;69.30
68789;DHT22;55773;54.444;18.376;2022-07-04T14:18:18;22.04;74.18
68789;DHT22;55773;54.444;18.376;2022-07-04T14:20:43;21.70;76.48
68789;DHT22;55773;54.444;18.376;2022-07-04T14:23:09;21.85;77.82
68789;DHT22;55773;54.444;18.376;2022-07-04T14:25:34;21.86;76.56
68789;DHT22;55773;54.444;18.376;2022-07-04T14:28:00;21.94;77.63
68789;DHT22;55773;54.444;18.376;2022-07-04T14:30:25;21.98;77.93
68789;DHT22;55773;54.444;18.376;2022-07-04T14:32:51;22.00;79.05
68789;DHT22;55773;54.444;18.376;2022-07-04T14:35:19;22.44;77.31
68789;DHT22;55773;54.444;18.376;2022-07-04T14:37:44;22.52;75.93
68789;DHT22;55773;54.444;18.376;2022-07-04T14:40:10;22.66;75.57
68789;DHT22;55773;54.444;18.376;2022-07-04T14:42:35;22.79;73.85
68789;DHT22;55773;54.444;18.376;2022-07-04T14:45:01;23.06;74.94
68789;DHT22;55773;54.444;18.376;2022-07-04T14:47:26;23.17;71.77
68789;DHT22;55773;54.444;18.376;2022-07-04T14:49:52;23.10;73.97
68789;DHT22;55773;54.444;18.376;2022-07-04T14:52:18;22.98;72.73
68789;DHT22;55773;54.444;18.376;2022-07-04T14:54:43;22.99;71.81
68789;DHT22;55773;54.444;18.376;2022-07-04T14:57:09;23.40;69.70
68789;DHT22;55773;54.444;18.376;2022-07-04T14:59:34;23.39;71.07
68789;DHT22;55773;54.444;18.376;2022-07-04T15:02:03;23.23;70.13
68789;DHT22;55773;54.444;18.376;2022-07-04T15:04:28;23.09;70.00
68789;DHT22;55773;54.444;18.376;2022-07-04T15:06:53;23.12;69.52
68789;DHT22;55773;54.444;18.376;2022-07-04T15:09:20;23.17;68.11
68789;DHT22;55773;54.444;18.376;2022-07-04T15:11:46;23.36;68.21
68789;DHT22;55773;54.444;18.376;2022-07-04T15:14:12;23.07;68.39
68789;DHT22;55773;54.444;18.376;2022-07-04T15:16:38;23.16;70.01
68789;DHT22;55773;54.444;18.376;2022-07-04T15:19:03;23.57;68.39
68789;DHT22;55773;54.444;18.376;2022-07-04T15:21:29;23.36;69.01
68789;DHT22;55773;54.444;18.376;2022-07-04T15:24:13;23.40;67.67
68789;DHT22;55773;54.444;18.376;2022-07-04T15:26:45;23.24;67.10
68789;DHT22;55773;54.444;18.376;2022-07-04T15:29:13;23.13;66.49